sensor_id;sensor_type;location;lat;lon;timestamp;P1;durP1;ratioP1;P2;durP2;ratioP2
9968;SDS011;5025;48.890;9.278;2022-12-28T00:01:08;4.33;;;3.67;;
9968;SDS011;5025;48.890;9.278;2022-12-28T00:03:44;3.97;;;3.67;;
9968;SDS011;5025;48.890;9.278;2022-12-28T00:06:10;4.40;;;4.00;;
9968;SDS011;5025;48.890;9.278;2022-12-28T00:08:36;3.87;;;3.57;;
9968;SDS011;5025;48.890;9.278;2022-12-28T00:11:02;5.20;;;3.50;;
9968;SDS011;5025;48.890;9.278;2022-12-28T00:13:30;3.87;;;3.40;;
9968;SDS011;5025;48.890;9.278;2022-12-28T00:15:57;3.73;;;3.43;;
9968;SDS011;5025;48.890;9.278;2022-12-28T00:18:23;4.07;;;3.70;;
9968;SDS011;5025;48.890;9.278;2022-12-28T00:20:55;4.77;;;3.70;;
9968;SDS011;5025;48.890;9.278;2022-12-28T00:23:24;4.13;;;3.73;;
9968;SDS011;5025;48.890;9.278;2022-12-28T00:25:50;4.10;;;3.80;;
9968;SDS011;5025;48.890;9.278;2022-12-28T00:28:16;4.37;;;3.53;;
9968;SDS011;5025;48.890;9.278;2022-12-28T00:30:41;4.20;;;3.63;;
9968;SDS011;5025;48.890;9.278;2022-12-28T00:33:06;4.07;;;3.57;;
9968;SDS011;5025;48.890;9.278;2022-12-28T00:35:32;4.97;;;3.70;;
9968;SDS011;5025;48.890;9.278;2022-12-28T00:37:57;3.60;;;3.30;;
9968;SDS011;5025;48.890;9.278;2022-12-28T00:40:22;3.70;;;3.30;;
9968;SDS011;5025;48.890;9.278;2022-12-28T00:42:48;3.40;;;3.10;;
9968;SDS011;5025;48.890;9.278;2022-12-28T00:45:13;4.87;;;3.50;;
9968;SDS011;5025;48.890;9.278;2022-12-28T00:47:38;4.07;;;3.67;;
9968;SDS011;5025;48.890;9.278;2022-12-28T00:50:06;3.70;;;3.40;;
9968;SDS011;5025;48.890;9.278;2022-12-28T00:52:32;4.67;;;3.70;;
9968;SDS011;5025;48.890;9.278;2022-12-28T00:54:57;4.50;;;3.60;;
9968;SDS011;5025;48.890;9.278;2022-12-28T00:57:22;4.47;;;3.57;;
9968;SDS011;5025;48.890;9.278;2022-12-28T00:59:47;4.37;;;3.37;;
9968;SDS011;5025;48.890;9.278;2022-12-28T01:02:13;3.97;;;3.30;;
9968;SDS011;5025;48.890;9.278;2022-12-28T01:04:38;3.73;;;3.33;;
9968;SDS011;5025;48.890;9.278;2022-12-28T01:07:03;3.47;;;3.17;;
9968;SDS011;5025;48.890;9.278;2022-12-28T01:09:28;5.77;;;3.50;;
9968;SDS011;5025;48.890;9.278;2022-12-28T01:11:54;3.77;;;3.37;;
9968;SDS011;5025;48.890;9.278;2022-12-28T01:14:19;5.47;;;3.40;;
9968;SDS011;5025;48.890;9.278;2022-12-28T01:16:44;3.90;;;3.50;;
9968;SDS011;5025;48.890;9.278;2022-12-28T01:19:09;4.00;;;3.50;;
9968;SDS011;5025;48.890;9.278;2022-12-28T01:21:37;3.80;;;3.50;;
9968;SDS011;5025;48.890;9.278;2022-12-28T01:24:03;3.57;;;3.27;;
9968;SDS011;5025;48.890;9.278;2022-12-28T01:26:31;3.47;;;3.00;;
9968;SDS011;5025;48.890;9.278;2022-12-28T01:28:57;3.70;;;3.40;;
9968;SDS011;5025;48.890;9.278;2022-12-28T01:31:22;3.50;;;3.20;;
9968;SDS011;5025;48.890;9.278;2022-12-28T01:33:48;3.63;;;3.10;;
9968;SDS011;5025;48.890;9.278;2022-12-28T01:36:14;4.17;;;3.20;;
9968;SDS011;5025;48.890;9.278;2022-12-28T01:38:42;4.03;;;3.43;;
9968;SDS011;5025;48.890;9.278;2022-12-28T01:41:09;3.43;;;3.10;;
9968;SDS011;5025;48.890;9.278;2022-12-28T01:43:46;3.30;;;3.00;;
9968;SDS011;5025;48.890;9.278;2022-12-28T01:49:16;3.73;;;3.33;;
9968;SDS011;5025;48.890;9.278;2022-12-28T01:51:44;3.93;;;3.20;;
9968;SDS011;5025;48.890;9.278;2022-12-28T01:54:17;3.33;;;3.00;;
9968;SDS011;5025;48.890;9.278;2022-12-28T01:56:43;2.97;;;2.77;;
9968;SDS011;5025;48.890;9.278;2022-12-28T01:59:10;3.70;;;3.40;;
9968;SDS011;5025;48.890;9.278;2022-12-28T02:01:36;3.37;;;2.80;;
9968;SDS011;5025;48.890;9.278;2022-12-28T02:04:01;3.40;;;3.10;;
9968;SDS011;5025;48.890;9.278;2022-12-28T02:06:27;2.97;;;2.63;;
9968;SDS011;5025;48.890;9.278;2022-12-28T02:11:35;3.57;;;3.10;;
9968;SDS011;5025;48.890;9.278;2022-12-28T02:14:01;3.30;;;3.00;;
9968;SDS011;5025;48.890;9.278;2022-12-28T02:16:28;3.00;;;2.73;;
9968;SDS011;5025;48.890;9.278;2022-12-28T02:18:54;2.90;;;2.70;;
9968;SDS011;5025;48.890;9.278;2022-12-28T02:32:16;3.70;;;3.40;;
9968;SDS011;5025;48.890;9.278;2022-12-28T02:34:58;3.90;;;3.50;;
9968;SDS011;5025;48.890;9.278;2022-12-28T02:37:31;3.43;;;3.13;;
9968;SDS011;5025;48.890;9.278;2022-12-28T02:40:10;3.70;;;3.40;;
9968;SDS011;5025;48.890;9.278;2022-12-28T02:42:44;4.00;;;3.40;;
9968;SDS011;5025;48.890;9.278;2022-12-28T02:45:29;4.13;;;3.67;;
9968;SDS011;5025;48.890;9.278;2022-12-28T02:48:13;3.87;;;3.23;;
9968;SDS011;5025;48.890;9.278;2022-12-28T03:04:29;4.03;;;2.93;;
9968;SDS011;5025;48.890;9.278;2022-12-28T03:07:07;3.20;;;3.00;;
9968;SDS011;5025;48.890;9.278;2022-12-28T03:12:43;2.80;;;2.60;;
9968;SDS011;5025;48.890;9.278;2022-12-28T03:15:12;2.60;;;2.40;;
9968;SDS011;5025;48.890;9.278;2022-12-28T03:17:53;3.00;;;2.53;;
9968;SDS011;5025;48.890;9.278;2022-12-28T03:20:41;2.83;;;2.63;;
9968;SDS011;5025;48.890;9.278;2022-12-28T03:23:28;2.70;;;2.50;;
9968;SDS011;5025;48.890;9.278;2022-12-28T03:26:16;2.70;;;2.43;;
9968;SDS011;5025;48.890;9.278;2022-12-28T03:29:03;3.90;;;3.00;;
9968;SDS011;5025;48.890;9.278;2022-12-28T03:31:50;4.70;;;3.57;;
9968;SDS011;5025;48.890;9.278;2022-12-28T03:34:16;3.70;;;3.40;;
9968;SDS011;5025;48.890;9.278;2022-12-28T03:36:58;3.30;;;3.00;;
9968;SDS011;5025;48.890;9.278;2022-12-28T03:39:35;2.80;;;2.60;;
9968;SDS011;5025;48.890;9.278;2022-12-28T03:42:28;3.83;;;3.10;;
9968;SDS011;5025;48.890;9.278;2022-12-28T03:45:36;3.53;;;3.23;;
9968;SDS011;5025;48.890;9.278;2022-12-28T03:48:11;3.37;;;3.07;;
9968;SDS011;5025;48.890;9.278;2022-12-28T03:50:38;3.13;;;2.80;;
9968;SDS011;5025;48.890;9.278;2022-12-28T03:53:07;2.80;;;2.60;;
9968;SDS011;5025;48.890;9.278;2022-12-28T03:55:33;3.37;;;2.77;;
9968;SDS011;5025;48.890;9.278;2022-12-28T03:58:01;2.50;;;2.30;;
9968;SDS011;5025;48.890;9.278;2022-12-28T04:00:28;3.67;;;2.57;;
9968;SDS011;5025;48.890;9.278;2022-12-28T04:02:53;2.53;;;2.33;;
9968;SDS011;5025;48.890;9.278;2022-12-28T04:05:18;2.40;;;2.13;;
9968;SDS011;5025;48.890;9.278;2022-12-28T04:07:45;2.57;;;2.20;;
9968;SDS011;5025;48.890;9.278;2022-12-28T04:10:10;2.27;;;1.80;;
9968;SDS011;5025;48.890;9.278;2022-12-28T04:12:36;2.90;;;2.00;;
9968;SDS011;5025;48.890;9.278;2022-12-28T04:15:01;2.23;;;2.03;;
9968;SDS011;5025;48.890;9.278;2022-12-28T04:17:27;2.13;;;2.00;;
9968;SDS011;5025;48.890;9.278;2022-12-28T04:19:53;2.10;;;2.00;;
9968;SDS011;5025;48.890;9.278;2022-12-28T04:22:18;2.87;;;2.10;;
9968;SDS011;5025;48.890;9.278;2022-12-28T04:24:43;3.30;;;2.30;;
9968;SDS011;5025;48.890;9.278;2022-12-28T04:27:08;2.20;;;2.00;;
9968;SDS011;5025;48.890;9.278;2022-12-28T04:29:34;1.83;;;1.73;;
9968;SDS011;5025;48.890;9.278;2022-12-28T04:31:59;2.00;;;1.90;;
9968;SDS011;5025;48.890;9.278;2022-12-28T04:34:24;2.07;;;1.97;;
9968;SDS011;5025;48.890;9.278;2022-12-28T04:36:49;2.70;;;1.70;;
9968;SDS011;5025;48.890;9.278;2022-12-28T04:39:15;2.60;;;2.00;;
9968;SDS011;5025;48.890;9.278;2022-12-28T04:41:40;1.80;;;1.70;;
9968;SDS011;5025;48.890;9.278;2022-12-28T04:44:05;2.13;;;1.83;;
9968;SDS011;5025;48.890;9.278;2022-12-28T04:46:31;1.83;;;1.70;;
9968;SDS011;5025;48.890;9.278;2022-12-28T04:48:59;1.80;;;1.70;;
9968;SDS011;5025;48.890;9.278;2022-12-28T04:51:25;2.13;;;2.00;;
9968;SDS011;5025;48.890;9.278;2022-12-28T04:53:52;1.70;;;1.60;;
9968;SDS011;5025;48.890;9.278;2022-12-28T04:56:19;2.00;;;1.70;;
9968;SDS011;5025;48.890;9.278;2022-12-28T04:58:46;2.00;;;1.90;;
9968;SDS011;5025;48.890;9.278;2022-12-28T05:01:12;1.73;;;1.63;;
9968;SDS011;5025;48.890;9.278;2022-12-28T05:03:41;2.63;;;1.70;;
9968;SDS011;5025;48.890;9.278;2022-12-28T05:06:09;2.00;;;1.90;;
9968;SDS011;5025;48.890;9.278;2022-12-28T05:08:37;1.70;;;1.60;;
9968;SDS011;5025;48.890;9.278;2022-12-28T05:11:04;1.60;;;1.50;;
9968;SDS011;5025;48.890;9.278;2022-12-28T05:13:32;1.77;;;1.67;;
9968;SDS011;5025;48.890;9.278;2022-12-28T05:16:01;1.73;;;1.63;;
9968;SDS011;5025;48.890;9.278;2022-12-28T05:18:31;1.70;;;1.60;;
9968;SDS011;5025;48.890;9.278;2022-12-28T05:20:58;1.70;;;1.60;;
9968;SDS011;5025;48.890;9.278;2022-12-28T05:23:28;1.47;;;1.37;;
9968;SDS011;5025;48.890;9.278;2022-12-28T05:25:54;1.80;;;1.70;;
9968;SDS011;5025;48.890;9.278;2022-12-28T05:28:20;1.83;;;1.73;;
9968;SDS011;5025;48.890;9.278;2022-12-28T05:30:46;2.03;;;1.83;;
9968;SDS011;5025;48.890;9.278;2022-12-28T05:33:11;1.73;;;1.60;;
9968;SDS011;5025;48.890;9.278;2022-12-28T05:35:36;1.83;;;1.70;;
9968;SDS011;5025;48.890;9.278;2022-12-28T05:38:02;1.83;;;1.73;;
9968;SDS011;5025;48.890;9.278;2022-12-28T05:40:27;2.30;;;2.20;;
9968;SDS011;5025;48.890;9.278;2022-12-28T05:42:53;2.20;;;2.00;;
9968;SDS011;5025;48.890;9.278;2022-12-28T05:45:18;2.27;;;1.80;;
9968;SDS011;5025;48.890;9.278;2022-12-28T05:47:43;1.57;;;1.47;;
9968;SDS011;5025;48.890;9.278;2022-12-28T05:50:09;1.90;;;1.50;;
9968;SDS011;5025;48.890;9.278;2022-12-28T05:52:34;2.23;;;1.87;;
9968;SDS011;5025;48.890;9.278;2022-12-28T05:55:00;1.77;;;1.67;;
9968;SDS011;5025;48.890;9.278;2022-12-28T05:57:28;1.87;;;1.57;;
9968;SDS011;5025;48.890;9.278;2022-12-28T05:59:53;1.57;;;1.47;;
9968;SDS011;5025;48.890;9.278;2022-12-28T06:02:18;1.60;;;1.50;;
9968;SDS011;5025;48.890;9.278;2022-12-28T06:04:43;1.87;;;1.60;;
9968;SDS011;5025;48.890;9.278;2022-12-28T06:07:09;1.57;;;1.40;;
9968;SDS011;5025;48.890;9.278;2022-12-28T06:09:34;2.03;;;1.50;;
9968;SDS011;5025;48.890;9.278;2022-12-28T06:11:59;1.73;;;1.33;;
9968;SDS011;5025;48.890;9.278;2022-12-28T06:14:25;2.00;;;1.37;;
9968;SDS011;5025;48.890;9.278;2022-12-28T06:16:50;1.93;;;1.50;;
9968;SDS011;5025;48.890;9.278;2022-12-28T06:19:15;1.50;;;1.40;;
9968;SDS011;5025;48.890;9.278;2022-12-28T06:21:42;1.43;;;1.33;;
9968;SDS011;5025;48.890;9.278;2022-12-28T06:24:08;1.70;;;1.50;;
9968;SDS011;5025;48.890;9.278;2022-12-28T06:26:35;1.40;;;1.30;;
9968;SDS011;5025;48.890;9.278;2022-12-28T06:29:01;2.03;;;1.50;;
9968;SDS011;5025;48.890;9.278;2022-12-28T06:31:29;1.70;;;1.50;;
9968;SDS011;5025;48.890;9.278;2022-12-28T06:33:57;1.40;;;1.40;;
9968;SDS011;5025;48.890;9.278;2022-12-28T06:36:28;1.93;;;1.43;;
9968;SDS011;5025;48.890;9.278;2022-12-28T06:38:55;1.40;;;1.40;;
9968;SDS011;5025;48.890;9.278;2022-12-28T06:41:22;1.60;;;1.50;;
9968;SDS011;5025;48.890;9.278;2022-12-28T06:43:49;1.37;;;1.27;;
9968;SDS011;5025;48.890;9.278;2022-12-28T06:46:15;3.00;;;1.67;;
9968;SDS011;5025;48.890;9.278;2022-12-28T06:48:41;1.77;;;1.30;;
9968;SDS011;5025;48.890;9.278;2022-12-28T06:51:14;1.77;;;1.20;;
9968;SDS011;5025;48.890;9.278;2022-12-28T06:53:41;1.37;;;1.17;;
9968;SDS011;5025;48.890;9.278;2022-12-28T06:56:10;1.20;;;1.10;;
9968;SDS011;5025;48.890;9.278;2022-12-28T06:58:37;1.20;;;1.20;;
9968;SDS011;5025;48.890;9.278;2022-12-28T07:01:06;0.97;;;0.97;;
9968;SDS011;5025;48.890;9.278;2022-12-28T07:03:34;1.17;;;1.07;;
9968;SDS011;5025;48.890;9.278;2022-12-28T07:06:00;1.50;;;1.17;;
9968;SDS011;5025;48.890;9.278;2022-12-28T07:08:26;1.43;;;1.30;;
9968;SDS011;5025;48.890;9.278;2022-12-28T07:10:52;1.00;;;1.00;;
9968;SDS011;5025;48.890;9.278;2022-12-28T07:13:17;2.60;;;1.30;;
9968;SDS011;5025;48.890;9.278;2022-12-28T07:15:42;1.83;;;1.00;;
9968;SDS011;5025;48.890;9.278;2022-12-28T07:18:08;1.23;;;1.13;;
9968;SDS011;5025;48.890;9.278;2022-12-28T07:20:33;1.77;;;1.63;;
9968;SDS011;5025;48.890;9.278;2022-12-28T07:22:58;1.47;;;1.37;;
9968;SDS011;5025;48.890;9.278;2022-12-28T07:25:24;1.40;;;1.30;;
9968;SDS011;5025;48.890;9.278;2022-12-28T07:27:49;1.80;;;1.47;;
9968;SDS011;5025;48.890;9.278;2022-12-28T07:30:14;1.03;;;1.03;;
9968;SDS011;5025;48.890;9.278;2022-12-28T07:32:39;1.37;;;1.17;;
9968;SDS011;5025;48.890;9.278;2022-12-28T07:35:05;1.83;;;1.40;;
9968;SDS011;5025;48.890;9.278;2022-12-28T07:37:31;1.53;;;1.30;;
9968;SDS011;5025;48.890;9.278;2022-12-28T07:39:56;1.60;;;1.37;;
9968;SDS011;5025;48.890;9.278;2022-12-28T07:42:22;1.47;;;1.30;;
9968;SDS011;5025;48.890;9.278;2022-12-28T07:44:47;1.50;;;1.40;;
9968;SDS011;5025;48.890;9.278;2022-12-28T07:47:13;1.30;;;1.20;;
9968;SDS011;5025;48.890;9.278;2022-12-28T07:49:38;1.53;;;1.20;;
9968;SDS011;5025;48.890;9.278;2022-12-28T07:52:04;2.30;;;1.40;;
9968;SDS011;5025;48.890;9.278;2022-12-28T07:54:30;1.40;;;1.30;;
9968;SDS011;5025;48.890;9.278;2022-12-28T07:56:55;1.33;;;1.30;;
9968;SDS011;5025;48.890;9.278;2022-12-28T07:59:21;2.07;;;1.40;;
9968;SDS011;5025;48.890;9.278;2022-12-28T08:01:47;1.57;;;1.40;;
9968;SDS011;5025;48.890;9.278;2022-12-28T08:04:14;1.90;;;1.30;;
9968;SDS011;5025;48.890;9.278;2022-12-28T08:06:41;1.37;;;1.17;;
9968;SDS011;5025;48.890;9.278;2022-12-28T08:09:08;1.93;;;1.40;;
9968;SDS011;5025;48.890;9.278;2022-12-28T08:11:36;1.87;;;1.40;;
9968;SDS011;5025;48.890;9.278;2022-12-28T08:14:03;1.70;;;1.40;;
9968;SDS011;5025;48.890;9.278;2022-12-28T08:16:31;1.53;;;1.43;;
9968;SDS011;5025;48.890;9.278;2022-12-28T08:18:58;2.20;;;1.60;;
9968;SDS011;5025;48.890;9.278;2022-12-28T08:21:25;1.70;;;1.50;;
9968;SDS011;5025;48.890;9.278;2022-12-28T08:23:52;1.70;;;1.60;;
9968;SDS011;5025;48.890;9.278;2022-12-28T08:26:22;2.07;;;1.60;;
9968;SDS011;5025;48.890;9.278;2022-12-28T08:28:51;1.60;;;1.50;;
9968;SDS011;5025;48.890;9.278;2022-12-28T08:31:19;1.70;;;1.60;;
9968;SDS011;5025;48.890;9.278;2022-12-28T08:33:46;1.83;;;1.67;;
9968;SDS011;5025;48.890;9.278;2022-12-28T08:36:12;1.90;;;1.80;;
9968;SDS011;5025;48.890;9.278;2022-12-28T08:38:38;2.13;;;1.93;;
9968;SDS011;5025;48.890;9.278;2022-12-28T08:41:07;1.80;;;1.70;;
9968;SDS011;5025;48.890;9.278;2022-12-28T08:43:36;3.03;;;2.03;;
9968;SDS011;5025;48.890;9.278;2022-12-28T08:46:03;2.37;;;1.70;;
9968;SDS011;5025;48.890;9.278;2022-12-28T08:48:30;2.90;;;1.90;;
9968;SDS011;5025;48.890;9.278;2022-12-28T08:51:00;1.87;;;1.77;;
9968;SDS011;5025;48.890;9.278;2022-12-28T08:53:34;1.80;;;1.70;;
9968;SDS011;5025;48.890;9.278;2022-12-28T08:56:07;1.80;;;1.70;;
9968;SDS011;5025;48.890;9.278;2022-12-28T08:58:38;3.10;;;1.83;;
9968;SDS011;5025;48.890;9.278;2022-12-28T09:01:12;1.90;;;1.80;;
9968;SDS011;5025;48.890;9.278;2022-12-28T09:03:49;1.57;;;1.57;;
9968;SDS011;5025;48.890;9.278;2022-12-28T09:06:17;4.20;;;2.30;;
9968;SDS011;5025;48.890;9.278;2022-12-28T09:08:47;2.03;;;1.93;;
9968;SDS011;5025;48.890;9.278;2022-12-28T09:11:14;2.50;;;1.90;;
9968;SDS011;5025;48.890;9.278;2022-12-28T09:13:39;2.10;;;2.00;;
9968;SDS011;5025;48.890;9.278;2022-12-28T09:16:08;2.20;;;2.00;;
9968;SDS011;5025;48.890;9.278;2022-12-28T09:18:36;3.17;;;2.97;;
9968;SDS011;5025;48.890;9.278;2022-12-28T09:21:03;2.63;;;2.43;;
9968;SDS011;5025;48.890;9.278;2022-12-28T09:23:30;3.20;;;2.90;;
9968;SDS011;5025;48.890;9.278;2022-12-28T09:25:55;3.97;;;3.13;;
9968;SDS011;5025;48.890;9.278;2022-12-28T09:28:21;4.03;;;2.73;;
9968;SDS011;5025;48.890;9.278;2022-12-28T09:30:46;3.37;;;2.87;;
9968;SDS011;5025;48.890;9.278;2022-12-28T09:33:11;2.20;;;2.10;;
9968;SDS011;5025;48.890;9.278;2022-12-28T09:35:56;4.43;;;1.97;;
9968;SDS011;5025;48.890;9.278;2022-12-28T09:38:22;2.03;;;1.80;;
9968;SDS011;5025;48.890;9.278;2022-12-28T09:40:48;1.70;;;1.60;;
9968;SDS011;5025;48.890;9.278;2022-12-28T09:43:13;2.30;;;1.53;;
9968;SDS011;5025;48.890;9.278;2022-12-28T09:45:39;1.50;;;1.40;;
9968;SDS011;5025;48.890;9.278;2022-12-28T09:48:07;1.80;;;1.70;;
9968;SDS011;5025;48.890;9.278;2022-12-28T09:50:38;2.43;;;1.70;;
9968;SDS011;5025;48.890;9.278;2022-12-28T09:53:21;1.80;;;1.70;;
9968;SDS011;5025;48.890;9.278;2022-12-28T09:58:41;1.97;;;1.87;;
9968;SDS011;5025;48.890;9.278;2022-12-28T10:01:11;3.17;;;1.47;;
9968;SDS011;5025;48.890;9.278;2022-12-28T10:03:39;1.73;;;1.63;;
9968;SDS011;5025;48.890;9.278;2022-12-28T11:06:07;3.47;;;1.90;;
9968;SDS011;5025;48.890;9.278;2022-12-28T11:08:32;1.87;;;1.77;;
9968;SDS011;5025;48.890;9.278;2022-12-28T11:10:57;2.00;;;1.90;;
9968;SDS011;5025;48.890;9.278;2022-12-28T11:13:23;2.67;;;1.90;;
9968;SDS011;5025;48.890;9.278;2022-12-28T11:15:48;2.03;;;1.70;;
9968;SDS011;5025;48.890;9.278;2022-12-28T11:18:14;1.73;;;1.63;;
9968;SDS011;5025;48.890;9.278;2022-12-28T11:20:42;2.67;;;1.73;;
9968;SDS011;5025;48.890;9.278;2022-12-28T11:23:10;1.73;;;1.57;;
9968;SDS011;5025;48.890;9.278;2022-12-28T11:25:42;2.07;;;1.90;;
9968;SDS011;5025;48.890;9.278;2022-12-28T11:28:14;2.60;;;1.70;;
9968;SDS011;5025;48.890;9.278;2022-12-28T11:30:43;1.87;;;1.70;;
9968;SDS011;5025;48.890;9.278;2022-12-28T11:36:15;1.60;;;1.50;;
9968;SDS011;5025;48.890;9.278;2022-12-28T11:38:46;1.70;;;1.60;;
9968;SDS011;5025;48.890;9.278;2022-12-28T11:43:48;1.70;;;1.43;;
9968;SDS011;5025;48.890;9.278;2022-12-28T11:51:19;1.20;;;1.20;;
9968;SDS011;5025;48.890;9.278;2022-12-28T12:02:36;1.20;;;1.10;;
9968;SDS011;5025;48.890;9.278;2022-12-28T12:04:47;1.07;;;1.00;;
9968;SDS011;5025;48.890;9.278;2022-12-28T12:07:13;1.40;;;1.30;;
9968;SDS011;5025;48.890;9.278;2022-12-28T12:09:40;1.43;;;1.33;;
9968;SDS011;5025;48.890;9.278;2022-12-28T12:14:43;1.20;;;1.10;;
9968;SDS011;5025;48.890;9.278;2022-12-28T12:19:51;1.10;;;1.03;;
9968;SDS011;5025;48.890;9.278;2022-12-28T12:22:24;6.20;;;3.47;;
9968;SDS011;5025;48.890;9.278;2022-12-28T12:27:32;4.40;;;2.67;;
9968;SDS011;5025;48.890;9.278;2022-12-28T12:30:11;6.63;;;4.37;;
9968;SDS011;5025;48.890;9.278;2022-12-28T12:32:47;2.27;;;1.83;;
9968;SDS011;5025;48.890;9.278;2022-12-28T12:35:16;2.03;;;1.63;;
9968;SDS011;5025;48.890;9.278;2022-12-28T12:40:23;1.40;;;1.30;;
9968;SDS011;5025;48.890;9.278;2022-12-28T12:50:58;2.67;;;1.50;;
9968;SDS011;5025;48.890;9.278;2022-12-28T13:01:31;1.93;;;1.33;;
9968;SDS011;5025;48.890;9.278;2022-12-28T13:04:07;1.40;;;1.30;;
9968;SDS011;5025;48.890;9.278;2022-12-28T13:06:38;1.83;;;1.67;;
9968;SDS011;5025;48.890;9.278;2022-12-28T13:09:04;1.60;;;1.50;;
9968;SDS011;5025;48.890;9.278;2022-12-28T13:11:34;1.27;;;1.27;;
9968;SDS011;5025;48.890;9.278;2022-12-28T13:14:01;1.60;;;1.50;;
9968;SDS011;5025;48.890;9.278;2022-12-28T13:16:27;1.40;;;1.30;;
9968;SDS011;5025;48.890;9.278;2022-12-28T13:21:26;1.50;;;1.37;;
9968;SDS011;5025;48.890;9.278;2022-12-28T13:23:53;1.70;;;1.37;;
9968;SDS011;5025;48.890;9.278;2022-12-28T13:26:27;1.83;;;1.60;;
9968;SDS011;5025;48.890;9.278;2022-12-28T13:29:00;1.63;;;1.53;;
9968;SDS011;5025;48.890;9.278;2022-12-28T13:31:36;2.93;;;1.50;;
9968;SDS011;5025;48.890;9.278;2022-12-28T13:34:14;4.17;;;2.30;;
9968;SDS011;5025;48.890;9.278;2022-12-28T13:36:48;1.47;;;1.20;;
9968;SDS011;5025;48.890;9.278;2022-12-28T13:39:14;1.40;;;1.13;;
9968;SDS011;5025;48.890;9.278;2022-12-28T13:42:25;1.53;;;1.43;;
9968;SDS011;5025;48.890;9.278;2022-12-28T13:47:30;1.70;;;1.60;;
9968;SDS011;5025;48.890;9.278;2022-12-28T13:52:33;1.47;;;1.13;;
9968;SDS011;5025;48.890;9.278;2022-12-28T13:55:05;1.33;;;1.23;;
9968;SDS011;5025;48.890;9.278;2022-12-28T13:57:34;2.10;;;1.90;;
9968;SDS011;5025;48.890;9.278;2022-12-28T14:00:02;2.40;;;2.20;;
9968;SDS011;5025;48.890;9.278;2022-12-28T14:02:28;1.70;;;1.60;;
9968;SDS011;5025;48.890;9.278;2022-12-28T14:04:54;1.43;;;1.37;;
9968;SDS011;5025;48.890;9.278;2022-12-28T14:07:20;2.10;;;1.73;;
9968;SDS011;5025;48.890;9.278;2022-12-28T14:09:50;1.43;;;1.33;;
9968;SDS011;5025;48.890;9.278;2022-12-28T14:12:16;1.40;;;1.30;;
9968;SDS011;5025;48.890;9.278;2022-12-28T14:14:43;1.43;;;1.33;;
9968;SDS011;5025;48.890;9.278;2022-12-28T14:17:09;1.30;;;1.20;;
9968;SDS011;5025;48.890;9.278;2022-12-28T14:19:35;1.50;;;1.40;;
9968;SDS011;5025;48.890;9.278;2022-12-28T14:22:01;1.10;;;1.10;;
9968;SDS011;5025;48.890;9.278;2022-12-28T14:24:26;2.90;;;2.67;;
9968;SDS011;5025;48.890;9.278;2022-12-28T14:26:52;2.00;;;1.90;;
9968;SDS011;5025;48.890;9.278;2022-12-28T14:29:31;3.13;;;2.37;;
9968;SDS011;5025;48.890;9.278;2022-12-28T14:32:02;2.60;;;2.40;;
9968;SDS011;5025;48.890;9.278;2022-12-28T14:34:30;3.20;;;2.33;;
9968;SDS011;5025;48.890;9.278;2022-12-28T14:36:58;3.03;;;2.73;;
9968;SDS011;5025;48.890;9.278;2022-12-28T14:39:36;2.47;;;1.97;;
9968;SDS011;5025;48.890;9.278;2022-12-28T14:42:15;2.43;;;1.70;;
9968;SDS011;5025;48.890;9.278;2022-12-28T14:44:44;3.30;;;2.83;;
9968;SDS011;5025;48.890;9.278;2022-12-28T14:50:03;1.60;;;1.50;;
9968;SDS011;5025;48.890;9.278;2022-12-28T14:52:42;1.67;;;1.50;;
9968;SDS011;5025;48.890;9.278;2022-12-28T14:55:28;1.73;;;1.50;;
9968;SDS011;5025;48.890;9.278;2022-12-28T14:58:00;1.90;;;1.80;;
9968;SDS011;5025;48.890;9.278;2022-12-28T15:00:31;2.03;;;1.93;;
9968;SDS011;5025;48.890;9.278;2022-12-28T15:06:15;2.30;;;2.10;;
9968;SDS011;5025;48.890;9.278;2022-12-28T15:08:40;1.60;;;1.50;;
9968;SDS011;5025;48.890;9.278;2022-12-28T15:11:08;1.27;;;1.27;;
9968;SDS011;5025;48.890;9.278;2022-12-28T15:13:33;1.53;;;1.43;;
9968;SDS011;5025;48.890;9.278;2022-12-28T15:16:00;1.70;;;1.47;;
9968;SDS011;5025;48.890;9.278;2022-12-28T15:18:28;2.13;;;1.50;;
9968;SDS011;5025;48.890;9.278;2022-12-28T15:21:01;1.53;;;1.40;;
9968;SDS011;5025;48.890;9.278;2022-12-28T15:23:28;1.60;;;1.50;;
9968;SDS011;5025;48.890;9.278;2022-12-28T15:25:53;1.70;;;1.60;;
9968;SDS011;5025;48.890;9.278;2022-12-28T15:28:18;2.47;;;1.70;;
9968;SDS011;5025;48.890;9.278;2022-12-28T15:30:44;2.63;;;2.07;;
9968;SDS011;5025;48.890;9.278;2022-12-28T15:33:10;2.50;;;2.17;;
9968;SDS011;5025;48.890;9.278;2022-12-28T15:35:36;2.10;;;1.97;;
9968;SDS011;5025;48.890;9.278;2022-12-28T15:38:02;2.87;;;2.63;;
9968;SDS011;5025;48.890;9.278;2022-12-28T15:40:28;2.70;;;2.50;;
9968;SDS011;5025;48.890;9.278;2022-12-28T15:42:53;2.80;;;2.53;;
9968;SDS011;5025;48.890;9.278;2022-12-28T15:45:18;2.57;;;2.37;;
9968;SDS011;5025;48.890;9.278;2022-12-28T15:47:44;2.40;;;2.30;;
9968;SDS011;5025;48.890;9.278;2022-12-28T15:50:09;1.70;;;1.60;;
9968;SDS011;5025;48.890;9.278;2022-12-28T15:52:35;1.93;;;1.50;;
9968;SDS011;5025;48.890;9.278;2022-12-28T15:55:00;2.43;;;1.70;;
9968;SDS011;5025;48.890;9.278;2022-12-28T15:57:26;2.70;;;2.50;;
9968;SDS011;5025;48.890;9.278;2022-12-28T15:59:52;3.27;;;2.97;;
9968;SDS011;5025;48.890;9.278;2022-12-28T16:02:18;3.43;;;3.13;;
9968;SDS011;5025;48.890;9.278;2022-12-28T16:04:43;3.67;;;2.80;;
9968;SDS011;5025;48.890;9.278;2022-12-28T16:07:09;2.57;;;2.37;;
9968;SDS011;5025;48.890;9.278;2022-12-28T16:09:34;2.60;;;2.40;;
9968;SDS011;5025;48.890;9.278;2022-12-28T16:12:00;2.00;;;1.83;;
9968;SDS011;5025;48.890;9.278;2022-12-28T16:14:25;2.10;;;2.00;;
9968;SDS011;5025;48.890;9.278;2022-12-28T16:16:51;2.20;;;2.00;;
9968;SDS011;5025;48.890;9.278;2022-12-28T16:19:16;1.90;;;1.80;;
9968;SDS011;5025;48.890;9.278;2022-12-28T16:21:42;2.30;;;2.07;;
9968;SDS011;5025;48.890;9.278;2022-12-28T16:24:08;2.20;;;2.10;;
9968;SDS011;5025;48.890;9.278;2022-12-28T16:26:34;2.10;;;2.00;;
9968;SDS011;5025;48.890;9.278;2022-12-28T16:29:00;2.23;;;2.03;;
9968;SDS011;5025;48.890;9.278;2022-12-28T16:31:30;2.40;;;2.20;;
9968;SDS011;5025;48.890;9.278;2022-12-28T16:34:07;2.20;;;2.00;;
9968;SDS011;5025;48.890;9.278;2022-12-28T16:36:35;2.90;;;2.60;;
9968;SDS011;5025;48.890;9.278;2022-12-28T16:39:01;2.33;;;2.13;;
9968;SDS011;5025;48.890;9.278;2022-12-28T16:41:29;2.20;;;2.00;;
9968;SDS011;5025;48.890;9.278;2022-12-28T16:43:59;2.67;;;2.30;;
9968;SDS011;5025;48.890;9.278;2022-12-28T16:46:26;2.33;;;2.20;;
9968;SDS011;5025;48.890;9.278;2022-12-28T16:48:51;2.30;;;2.20;;
9968;SDS011;5025;48.890;9.278;2022-12-28T16:51:16;3.20;;;2.90;;
9968;SDS011;5025;48.890;9.278;2022-12-28T16:53:41;2.73;;;2.53;;
9968;SDS011;5025;48.890;9.278;2022-12-28T16:56:08;2.70;;;2.50;;
9968;SDS011;5025;48.890;9.278;2022-12-28T16:58:34;3.10;;;2.47;;
9968;SDS011;5025;48.890;9.278;2022-12-28T17:01:04;2.83;;;2.57;;
9968;SDS011;5025;48.890;9.278;2022-12-28T17:03:31;2.53;;;2.37;;
9968;SDS011;5025;48.890;9.278;2022-12-28T17:05:57;2.20;;;2.00;;
9968;SDS011;5025;48.890;9.278;2022-12-28T17:08:23;2.30;;;2.17;;
9968;SDS011;5025;48.890;9.278;2022-12-28T17:10:48;2.57;;;2.37;;
9968;SDS011;5025;48.890;9.278;2022-12-28T17:13:13;2.67;;;2.37;;
9968;SDS011;5025;48.890;9.278;2022-12-28T17:15:40;2.30;;;2.17;;
9968;SDS011;5025;48.890;9.278;2022-12-28T17:18:06;2.73;;;2.33;;
9968;SDS011;5025;48.890;9.278;2022-12-28T17:20:34;3.83;;;2.20;;
9968;SDS011;5025;48.890;9.278;2022-12-28T17:23:00;2.70;;;2.10;;
9968;SDS011;5025;48.890;9.278;2022-12-28T17:25:26;2.13;;;2.00;;
9968;SDS011;5025;48.890;9.278;2022-12-28T17:27:52;2.63;;;2.30;;
9968;SDS011;5025;48.890;9.278;2022-12-28T17:30:18;2.80;;;2.53;;
9968;SDS011;5025;48.890;9.278;2022-12-28T17:32:43;2.60;;;2.40;;
9968;SDS011;5025;48.890;9.278;2022-12-28T17:35:08;2.33;;;2.20;;
9968;SDS011;5025;48.890;9.278;2022-12-28T17:37:34;2.30;;;2.10;;
9968;SDS011;5025;48.890;9.278;2022-12-28T17:40:00;2.93;;;2.70;;
9968;SDS011;5025;48.890;9.278;2022-12-28T17:42:25;5.53;;;4.30;;
9968;SDS011;5025;48.890;9.278;2022-12-28T17:44:50;3.97;;;3.10;;
9968;SDS011;5025;48.890;9.278;2022-12-28T17:47:16;2.80;;;2.60;;
9968;SDS011;5025;48.890;9.278;2022-12-28T17:49:41;2.83;;;2.63;;
9968;SDS011;5025;48.890;9.278;2022-12-28T17:52:06;2.70;;;2.50;;
9968;SDS011;5025;48.890;9.278;2022-12-28T17:54:32;2.67;;;2.47;;
9968;SDS011;5025;48.890;9.278;2022-12-28T17:56:57;2.43;;;2.23;;